sensor_id;sensor_type;location;lat;lon;timestamp;pressure;altitude;pressure_sealevel;temperature;humidity
73242;BME280;65659;49.234;-2.094;2023-05-23T00:01:37;101211.38;;;20.02;40.77
73242;BME280;65659;49.234;-2.094;2023-05-23T00:04:03;101211.88;;;20.32;41.02
73242;BME280;65659;49.234;-2.094;2023-05-23T00:06:28;101206.72;;;19.70;41.22
73242;BME280;65659;49.234;-2.094;2023-05-23T00:08:54;101207.65;;;19.86;41.47
73242;BME280;65659;49.234;-2.094;2023-05-23T00:11:19;101206.26;;;20.02;41.40
73242;BME280;65659;49.234;-2.094;2023-05-23T00:13:45;101210.75;;;19.73;41.64
73242;BME280;65659;49.234;-2.094;2023-05-23T00:16:11;101217.64;;;19.66;41.79
73242;BME280;65659;49.234;-2.094;2023-05-23T00:18:41;101224.04;;;19.58;41.93
73242;BME280;65659;49.234;-2.094;2023-05-23T00:21:02;101224.12;;;19.87;41.86
73242;BME280;65659;49.234;-2.094;2023-05-23T00:23:27;101224.58;;;19.80;42.01
73242;BME280;65659;49.234;-2.094;2023-05-23T00:25:53;101221.12;;;19.73;42.04
73242;BME280;65659;49.234;-2.094;2023-05-23T00:28:19;101219.57;;;19.65;42.07
73242;BME280;65659;49.234;-2.094;2023-05-23T00:30:45;101215.68;;;19.12;42.01
73242;BME280;65659;49.234;-2.094;2023-05-23T00:33:10;101211.10;;;19.61;41.84
73242;BME280;65659;49.234;-2.094;2023-05-23T00:35:36;101209.20;;;19.62;41.88
73242;BME280;65659;49.234;-2.094;2023-05-23T00:38:02;101205.74;;;19.61;41.91
73242;BME280;65659;49.234;-2.094;2023-05-23T00:40:28;101203.96;;;19.59;41.92
73242;BME280;65659;49.234;-2.094;2023-05-23T00:42:54;101200.10;;;19.58;41.87
73242;BME280;65659;49.234;-2.094;2023-05-23T00:45:19;101195.31;;;19.59;41.69
73242;BME280;65659;49.234;-2.094;2023-05-23T00:47:50;101197.46;;;19.10;41.70
73242;BME280;65659;49.234;-2.094;2023-05-23T00:50:15;101196.78;;;19.59;41.52
73242;BME280;65659;49.234;-2.094;2023-05-23T00:52:36;101190.34;;;19.58;41.41
73242;BME280;65659;49.234;-2.094;2023-05-23T00:55:02;101191.13;;;19.62;40.89
73242;BME280;65659;49.234;-2.094;2023-05-23T00:57:27;101193.22;;;19.56;40.53
73242;BME280;65659;49.234;-2.094;2023-05-23T00:59:53;101194.51;;;19.84;40.83
73242;BME280;65659;49.234;-2.094;2023-05-23T01:02:19;101195.06;;;19.83;40.61
73242;BME280;65659;49.234;-2.094;2023-05-23T01:04:44;101196.63;;;19.59;40.37
73242;BME280;65659;49.234;-2.094;2023-05-23T01:07:10;101199.47;;;19.83;40.24
73242;BME280;65659;49.234;-2.094;2023-05-23T01:09:35;101195.39;;;19.84;40.33
73242;BME280;65659;49.234;-2.094;2023-05-23T01:12:12;101197.16;;;19.85;40.10
73242;BME280;65659;49.234;-2.094;2023-05-23T01:14:33;101202.73;;;19.87;39.89
73242;BME280;65659;49.234;-2.094;2023-05-23T01:16:59;101206.27;;;19.87;39.78
73242;BME280;65659;49.234;-2.094;2023-05-23T01:19:30;101203.41;;;19.89;39.63
73242;BME280;65659;49.234;-2.094;2023-05-23T01:21:45;101205.19;;;19.42;39.20
73242;BME280;65659;49.234;-2.094;2023-05-23T01:24:26;101203.37;;;19.94;38.63
73242;BME280;65659;49.234;-2.094;2023-05-23T01:26:45;101209.04;;;20.00;38.35
73242;BME280;65659;49.234;-2.094;2023-05-23T01:29:07;101205.88;;;20.01;38.21
73242;BME280;65659;49.234;-2.094;2023-05-23T01:31:28;101208.84;;;20.00;38.17
73242;BME280;65659;49.234;-2.094;2023-05-23T01:33:53;101213.35;;;19.75;38.21
73242;BME280;65659;49.234;-2.094;2023-05-23T01:36:20;101210.33;;;19.95;37.99
73242;BME280;65659;49.234;-2.094;2023-05-23T01:38:44;101206.69;;;19.49;37.70
73242;BME280;65659;49.234;-2.094;2023-05-23T01:41:10;101207.50;;;19.90;37.60
73242;BME280;65659;49.234;-2.094;2023-05-23T01:43:36;101210.36;;;19.60;37.33
73242;BME280;65659;49.234;-2.094;2023-05-23T01:46:03;101214.01;;;19.84;37.29
73242;BME280;65659;49.234;-2.094;2023-05-23T01:48:28;101215.41;;;19.82;37.20
73242;BME280;65659;49.234;-2.094;2023-05-23T01:50:53;101217.78;;;19.75;36.87
73242;BME280;65659;49.234;-2.094;2023-05-23T01:53:20;101222.93;;;19.48;36.67
73242;BME280;65659;49.234;-2.094;2023-05-23T01:55:45;101228.03;;;19.45;36.33
73242;BME280;65659;49.234;-2.094;2023-05-23T01:58:16;101229.33;;;19.20;36.06
73242;BME280;65659;49.234;-2.094;2023-05-23T02:00:36;101234.43;;;19.74;35.61
73242;BME280;65659;49.234;-2.094;2023-05-23T02:03:02;101232.21;;;19.73;35.56
73242;BME280;65659;49.234;-2.094;2023-05-23T02:05:27;101234.82;;;19.66;35.19
73242;BME280;65659;49.234;-2.094;2023-05-23T02:07:53;101234.52;;;19.62;34.98
73242;BME280;65659;49.234;-2.094;2023-05-23T02:10:19;101238.37;;;19.55;34.71
73242;BME280;65659;49.234;-2.094;2023-05-23T02:12:45;101242.59;;;19.29;34.61
73242;BME280;65659;49.234;-2.094;2023-05-23T02:15:11;101242.36;;;19.48;34.75
73242;BME280;65659;49.234;-2.094;2023-05-23T02:17:37;101240.71;;;19.42;34.99
73242;BME280;65659;49.234;-2.094;2023-05-23T02:20:03;101244.39;;;19.29;35.13
73242;BME280;65659;49.234;-2.094;2023-05-23T02:22:28;101245.95;;;19.34;35.58
73242;BME280;65659;49.234;-2.094;2023-05-23T02:24:54;101248.64;;;19.41;35.64
73242;BME280;65659;49.234;-2.094;2023-05-23T02:27:19;101245.88;;;19.57;35.61
73242;BME280;65659;49.234;-2.094;2023-05-23T02:29:45;101246.04;;;19.02;35.38
73242;BME280;65659;49.234;-2.094;2023-05-23T02:32:11;101250.34;;;19.36;35.30
73242;BME280;65659;49.234;-2.094;2023-05-23T02:34:37;101246.93;;;19.37;35.07
73242;BME280;65659;49.234;-2.094;2023-05-23T02:37:02;101248.84;;;19.23;35.29
73242;BME280;65659;49.234;-2.094;2023-05-23T02:39:28;101249.61;;;19.22;35.27
73242;BME280;65659;49.234;-2.094;2023-05-23T02:41:54;101243.33;;;19.24;35.25
73242;BME280;65659;49.234;-2.094;2023-05-23T02:44:19;101241.94;;;19.43;35.58
73242;BME280;65659;49.234;-2.094;2023-05-23T02:46:45;101239.88;;;18.88;35.97
73242;BME280;65659;49.234;-2.094;2023-05-23T02:49:12;101241.14;;;19.33;36.13
73242;BME280;65659;49.234;-2.094;2023-05-23T02:51:37;101239.51;;;19.30;36.21
73242;BME280;65659;49.234;-2.094;2023-05-23T02:54:03;101244.22;;;18.86;36.03
73242;BME280;65659;49.234;-2.094;2023-05-23T02:56:29;101244.71;;;18.84;35.82
73242;BME280;65659;49.234;-2.094;2023-05-23T02:58:54;101241.67;;;19.14;35.76
73242;BME280;65659;49.234;-2.094;2023-05-23T03:01:19;101244.21;;;19.06;35.83
73242;BME280;65659;49.234;-2.094;2023-05-23T03:03:45;101242.24;;;18.51;35.89
73242;BME280;65659;49.234;-2.094;2023-05-23T03:06:11;101235.92;;;19.20;35.92
73242;BME280;65659;49.234;-2.094;2023-05-23T03:08:37;101235.60;;;18.89;35.80
73242;BME280;65659;49.234;-2.094;2023-05-23T03:11:03;101233.67;;;18.88;35.72
73242;BME280;65659;49.234;-2.094;2023-05-23T03:13:30;101239.77;;;19.07;35.66
73242;BME280;65659;49.234;-2.094;2023-05-23T03:15:54;101237.02;;;18.84;35.79
73242;BME280;65659;49.234;-2.094;2023-05-23T03:18:20;101241.31;;;19.08;35.86
73242;BME280;65659;49.234;-2.094;2023-05-23T03:20:46;101238.81;;;19.06;35.89
73242;BME280;65659;49.234;-2.094;2023-05-23T03:23:12;101242.28;;;18.79;35.87
73242;BME280;65659;49.234;-2.094;2023-05-23T03:25:37;101237.50;;;18.99;35.97
73242;BME280;65659;49.234;-2.094;2023-05-23T03:28:03;101236.50;;;18.98;35.93
73242;BME280;65659;49.234;-2.094;2023-05-23T03:30:28;101239.52;;;18.96;35.81
73242;BME280;65659;49.234;-2.094;2023-05-23T03:32:55;101240.36;;;18.90;35.86
73242;BME280;65659;49.234;-2.094;2023-05-23T03:35:19;101241.71;;;18.78;36.02
73242;BME280;65659;49.234;-2.094;2023-05-23T03:37:45;101241.78;;;18.56;36.03
73242;BME280;65659;49.234;-2.094;2023-05-23T03:40:10;101245.16;;;18.53;36.06
73242;BME280;65659;49.234;-2.094;2023-05-23T03:42:37;101241.20;;;18.70;36.17
73242;BME280;65659;49.234;-2.094;2023-05-23T03:45:02;101240.65;;;18.64;36.33
73242;BME280;65659;49.234;-2.094;2023-05-23T03:47:27;101239.39;;;18.63;36.47
73242;BME280;65659;49.234;-2.094;2023-05-23T03:49:53;101239.69;;;18.53;36.41
73242;BME280;65659;49.234;-2.094;2023-05-23T03:52:19;101238.45;;;18.57;36.35
73242;BME280;65659;49.234;-2.094;2023-05-23T03:54:45;101235.44;;;18.22;36.51
73242;BME280;65659;49.234;-2.094;2023-05-23T03:57:11;101232.48;;;18.27;36.53
73242;BME280;65659;49.234;-2.094;2023-05-23T03:59:36;101233.03;;;18.45;36.77
73242;BME280;65659;49.234;-2.094;2023-05-23T04:02:02;101235.22;;;18.15;36.99
73242;BME280;65659;49.234;-2.094;2023-05-23T04:04:26;101239.43;;;18.42;37.12
73242;BME280;65659;49.234;-2.094;2023-05-23T04:06:52;101240.11;;;18.38;37.34
73242;BME280;65659;49.234;-2.094;2023-05-23T04:09:18;101244.06;;;18.34;37.42
73242;BME280;65659;49.234;-2.094;2023-05-23T04:11:44;101246.89;;;18.27;37.35
73242;BME280;65659;49.234;-2.094;2023-05-23T04:14:09;101247.97;;;18.24;37.15
73242;BME280;65659;49.234;-2.094;2023-05-23T04:16:35;101252.84;;;18.19;37.03
73242;BME280;65659;49.234;-2.094;2023-05-23T04:19:00;101248.71;;;18.17;36.69
73242;BME280;65659;49.234;-2.094;2023-05-23T04:21:25;101255.38;;;18.15;36.50
73242;BME280;65659;49.234;-2.094;2023-05-23T04:23:50;101254.28;;;18.06;36.20
73242;BME280;65659;49.234;-2.094;2023-05-23T04:26:16;101251.03;;;18.12;35.95
73242;BME280;65659;49.234;-2.094;2023-05-23T04:29:04;101246.31;;;18.16;35.23
73242;BME280;65659;49.234;-2.094;2023-05-23T04:31:08;101249.34;;;18.20;34.87
73242;BME280;65659;49.234;-2.094;2023-05-23T04:33:36;101251.44;;;18.11;34.87
73242;BME280;65659;49.234;-2.094;2023-05-23T04:35:58;101253.08;;;18.32;34.93
73242;BME280;65659;49.234;-2.094;2023-05-23T04:38:24;101257.14;;;18.03;35.02
73242;BME280;65659;49.234;-2.094;2023-05-23T04:40:49;101253.12;;;17.97;34.96
73242;BME280;65659;49.234;-2.094;2023-05-23T04:43:15;101257.44;;;17.94;34.94
73242;BME280;65659;49.234;-2.094;2023-05-23T04:45:41;101258.54;;;17.92;34.93
73242;BME280;65659;49.234;-2.094;2023-05-23T04:48:06;101260.04;;;18.04;34.54
73242;BME280;65659;49.234;-2.094;2023-05-23T04:50:31;101257.41;;;17.98;34.45
73242;BME280;65659;49.234;-2.094;2023-05-23T04:52:57;101256.35;;;17.99;34.59
73242;BME280;65659;49.234;-2.094;2023-05-23T04:55:22;101257.67;;;18.24;34.81
73242;BME280;65659;49.234;-2.094;2023-05-23T04:57:48;101263.42;;;17.93;34.87
73242;BME280;65659;49.234;-2.094;2023-05-23T05:00:14;101264.15;;;18.20;34.77
73242;BME280;65659;49.234;-2.094;2023-05-23T05:02:40;101267.11;;;17.94;34.72
73242;BME280;65659;49.234;-2.094;2023-05-23T05:05:06;101267.68;;;18.17;34.65
73242;BME280;65659;49.234;-2.094;2023-05-23T05:07:30;101264.82;;;18.10;34.74
73242;BME280;65659;49.234;-2.094;2023-05-23T05:09:56;101265.07;;;17.82;34.78
73242;BME280;65659;49.234;-2.094;2023-05-23T05:12:21;101269.94;;;18.29;35.03
73242;BME280;65659;49.234;-2.094;2023-05-23T05:14:47;101278.56;;;17.86;35.20
73242;BME280;65659;49.234;-2.094;2023-05-23T05:17:13;101272.90;;;17.89;35.17
73242;BME280;65659;49.234;-2.094;2023-05-23T05:19:39;101278.86;;;17.86;35.06
73242;BME280;65659;49.234;-2.094;2023-05-23T05:22:04;101287.63;;;17.89;35.17
73242;BME280;65659;49.234;-2.094;2023-05-23T05:24:30;101284.57;;;17.85;35.54
73242;BME280;65659;49.234;-2.094;2023-05-23T05:26:56;101279.85;;;17.73;35.69
73242;BME280;65659;49.234;-2.094;2023-05-23T05:29:21;101279.74;;;17.93;35.54
73242;BME280;65659;49.234;-2.094;2023-05-23T05:31:47;101278.79;;;17.91;35.83
73242;BME280;65659;49.234;-2.094;2023-05-23T05:34:12;101277.39;;;17.89;36.03
73242;BME280;65659;49.234;-2.094;2023-05-23T05:36:38;101282.99;;;17.93;36.38
73242;BME280;65659;49.234;-2.094;2023-05-23T05:39:04;101286.87;;;18.18;36.57
73242;BME280;65659;49.234;-2.094;2023-05-23T05:41:29;101289.20;;;17.94;36.82
73242;BME280;65659;49.234;-2.094;2023-05-23T05:43:54;101294.35;;;18.18;37.08
73242;BME280;65659;49.234;-2.094;2023-05-23T05:46:20;101296.57;;;18.17;37.09
73242;BME280;65659;49.234;-2.094;2023-05-23T05:48:46;101299.68;;;17.99;36.72
73242;BME280;65659;49.234;-2.094;2023-05-23T05:51:11;101304.05;;;18.07;36.65
73242;BME280;65659;49.234;-2.094;2023-05-23T05:53:36;101310.79;;;18.13;36.43
73242;BME280;65659;49.234;-2.094;2023-05-23T05:56:02;101311.07;;;18.17;36.61
73242;BME280;65659;49.234;-2.094;2023-05-23T05:58:27;101316.91;;;18.19;36.69
73242;BME280;65659;49.234;-2.094;2023-05-23T06:00:54;101315.65;;;18.13;36.82
73242;BME280;65659;49.234;-2.094;2023-05-23T06:03:18;101314.99;;;18.25;36.58
73242;BME280;65659;49.234;-2.094;2023-05-23T06:05:44;101314.71;;;18.32;36.56
73242;BME280;65659;49.234;-2.094;2023-05-23T06:08:09;101320.17;;;17.87;36.44
73242;BME280;65659;49.234;-2.094;2023-05-23T06:10:39;101321.13;;;18.47;36.08
73242;BME280;65659;49.234;-2.094;2023-05-23T06:12:59;101321.46;;;18.45;36.23
73242;BME280;65659;49.234;-2.094;2023-05-23T06:15:25;101322.31;;;18.47;36.36
73242;BME280;65659;49.234;-2.094;2023-05-23T06:17:50;101320.71;;;18.29;36.20
73242;BME280;65659;49.234;-2.094;2023-05-23T06:20:16;101322.80;;;18.35;36.17
73242;BME280;65659;49.234;-2.094;2023-05-23T06:22:43;101327.39;;;18.36;36.15
73242;BME280;65659;49.234;-2.094;2023-05-23T06:25:08;101324.69;;;18.44;36.47
73242;BME280;65659;49.234;-2.094;2023-05-23T06:27:33;101329.14;;;18.34;36.43
73242;BME280;65659;49.234;-2.094;2023-05-23T06:29:58;101330.71;;;18.40;36.26
73242;BME280;65659;49.234;-2.094;2023-05-23T06:32:24;101330.10;;;18.78;36.12
73242;BME280;65659;49.234;-2.094;2023-05-23T06:34:50;101328.10;;;18.63;36.03
73242;BME280;65659;49.234;-2.094;2023-05-23T06:37:15;101330.27;;;18.71;35.57
73242;BME280;65659;49.234;-2.094;2023-05-23T06:39:44;101337.29;;;18.83;35.63
73242;BME280;65659;49.234;-2.094;2023-05-23T06:42:06;101331.53;;;18.91;35.66
73242;BME280;65659;49.234;-2.094;2023-05-23T06:44:31;101327.56;;;18.80;35.32
73242;BME280;65659;49.234;-2.094;2023-05-23T06:46:56;101326.50;;;18.46;35.25
73242;BME280;65659;49.234;-2.094;2023-05-23T06:49:22;101328.76;;;18.85;35.20
73242;BME280;65659;49.234;-2.094;2023-05-23T06:51:48;101331.66;;;19.00;34.86
73242;BME280;65659;49.234;-2.094;2023-05-23T06:54:13;101332.50;;;18.96;34.76
73242;BME280;65659;49.234;-2.094;2023-05-23T06:56:39;101333.27;;;18.89;34.29
73242;BME280;65659;49.234;-2.094;2023-05-23T06:59:04;101332.39;;;19.34;33.93
73242;BME280;65659;49.234;-2.094;2023-05-23T07:01:29;101336.58;;;19.23;33.94
73242;BME280;65659;49.234;-2.094;2023-05-23T07:03:56;101335.84;;;19.12;33.78
73242;BME280;65659;49.234;-2.094;2023-05-23T07:06:21;101332.48;;;19.50;33.36
73242;BME280;65659;49.234;-2.094;2023-05-23T07:08:47;101333.44;;;19.14;33.31
73242;BME280;65659;49.234;-2.094;2023-05-23T07:11:12;101341.36;;;19.71;32.71
73242;BME280;65659;49.234;-2.094;2023-05-23T07:13:38;101338.78;;;19.32;32.80
73242;BME280;65659;49.234;-2.094;2023-05-23T07:16:05;101340.91;;;19.55;32.78
73242;BME280;65659;49.234;-2.094;2023-05-23T07:18:30;101339.33;;;19.92;32.76
73242;BME280;65659;49.234;-2.094;2023-05-23T07:20:56;101333.33;;;19.54;32.97
73242;BME280;65659;49.234;-2.094;2023-05-23T07:23:22;101336.72;;;19.39;32.85
73242;BME280;65659;49.234;-2.094;2023-05-23T07:25:47;101334.17;;;19.88;32.43
73242;BME280;65659;49.234;-2.094;2023-05-23T07:28:13;101336.97;;;19.72;32.55
73242;BME280;65659;49.234;-2.094;2023-05-23T07:30:38;101340.70;;;19.53;32.76
73242;BME280;65659;49.234;-2.094;2023-05-23T07:33:05;101337.86;;;19.70;32.64
73242;BME280;65659;49.234;-2.094;2023-05-23T07:35:30;101336.62;;;20.00;32.65
73242;BME280;65659;49.234;-2.094;2023-05-23T07:37:56;101335.21;;;19.88;32.56
73242;BME280;65659;49.234;-2.094;2023-05-23T07:40:22;101330.50;;;20.03;32.38
73242;BME280;65659;49.234;-2.094;2023-05-23T07:42:47;101332.30;;;20.07;31.97
73242;BME280;65659;49.234;-2.094;2023-05-23T07:45:13;101327.77;;;20.26;31.71
73242;BME280;65659;49.234;-2.094;2023-05-23T07:47:39;101328.55;;;20.18;31.77
73242;BME280;65659;49.234;-2.094;2023-05-23T07:50:05;101336.81;;;20.27;31.65
73242;BME280;65659;49.234;-2.094;2023-05-23T07:52:30;101339.89;;;20.37;31.52
73242;BME280;65659;49.234;-2.094;2023-05-23T07:54:55;101339.12;;;20.43;31.55
73242;BME280;65659;49.234;-2.094;2023-05-23T07:57:21;101336.44;;;20.92;31.57
73242;BME280;65659;49.234;-2.094;2023-05-23T07:59:48;101336.68;;;20.47;31.95
73242;BME280;65659;49.234;-2.094;2023-05-23T08:02:12;101337.73;;;20.35;31.97
73242;BME280;65659;49.234;-2.094;2023-05-23T08:04:40;101333.58;;;20.64;31.49
73242;BME280;65659;49.234;-2.094;2023-05-23T08:07:05;101335.38;;;20.44;31.20
73242;BME280;65659;49.234;-2.094;2023-05-23T08:09:29;101339.17;;;20.92;30.86
73242;BME280;65659;49.234;-2.094;2023-05-23T08:11:54;101331.17;;;20.78;30.43
73242;BME280;65659;49.234;-2.094;2023-05-23T08:14:20;101331.91;;;20.89;30.53
73242;BME280;65659;49.234;-2.094;2023-05-23T08:16:46;101331.49;;;20.84;30.46
73242;BME280;65659;49.234;-2.094;2023-05-23T08:19:11;101329.14;;;20.94;30.41
73242;BME280;65659;49.234;-2.094;2023-05-23T08:21:39;101332.16;;;21.03;30.44
73242;BME280;65659;49.234;-2.094;2023-05-23T08:24:03;101333.33;;;21.12;30.26
73242;BME280;65659;49.234;-2.094;2023-05-23T08:26:28;101338.81;;;21.71;30.27
73242;BME280;65659;49.234;-2.094;2023-05-23T08:28:54;101341.20;;;21.76;30.34
73242;BME280;65659;49.234;-2.094;2023-05-23T08:31:19;101341.74;;;21.41;30.19
73242;BME280;65659;49.234;-2.094;2023-05-23T08:33:46;101339.41;;;22.04;30.10
73242;BME280;65659;49.234;-2.094;2023-05-23T08:36:11;101338.25;;;22.10;30.05
73242;BME280;65659;49.234;-2.094;2023-05-23T08:38:36;101341.12;;;21.52;30.04
73242;BME280;65659;49.234;-2.094;2023-05-23T08:41:02;101341.41;;;21.73;30.13
73242;BME280;65659;49.234;-2.094;2023-05-23T08:43:28;101341.36;;;21.87;30.22
73242;BME280;65659;49.234;-2.094;2023-05-23T08:45:53;101341.09;;;22.04;30.16
73242;BME280;65659;49.234;-2.094;2023-05-23T08:48:20;101342.22;;;22.22;29.77
73242;BME280;65659;49.234;-2.094;2023-05-23T08:50:47;101340.40;;;22.27;29.82
73242;BME280;65659;49.234;-2.094;2023-05-23T08:53:15;101342.68;;;22.46;29.84
73242;BME280;65659;49.234;-2.094;2023-05-23T08:55:38;101342.08;;;22.34;30.14
73242;BME280;65659;49.234;-2.094;2023-05-23T08:58:07;101342.58;;;22.54;29.40
73242;BME280;65659;49.234;-2.094;2023-05-23T09:00:28;101343.92;;;22.54;28.81
73242;BME280;65659;49.234;-2.094;2023-05-23T09:02:57;101345.69;;;22.40;28.23
73242;BME280;65659;49.234;-2.094;2023-05-23T09:05:20;101347.50;;;22.49;28.30
73242;BME280;65659;49.234;-2.094;2023-05-23T09:07:47;101347.68;;;22.95;29.30
73242;BME280;65659;49.234;-2.094;2023-05-23T09:10:11;101350.21;;;23.30;29.76
73242;BME280;65659;49.234;-2.094;2023-05-23T09:12:37;101348.69;;;23.61;30.36
73242;BME280;65659;49.234;-2.094;2023-05-23T09:15:02;101349.75;;;22.47;30.60
73242;BME280;65659;49.234;-2.094;2023-05-23T09:17:27;101352.92;;;22.73;30.59
73242;BME280;65659;49.234;-2.094;2023-05-23T09:19:51;101349.90;;;22.61;30.54
73242;BME280;65659;49.234;-2.094;2023-05-23T09:22:23;101345.29;;;22.81;30.17
73242;BME280;65659;49.234;-2.094;2023-05-23T09:24:43;101339.69;;;22.94;30.18
73242;BME280;65659;49.234;-2.094;2023-05-23T09:27:09;101340.61;;;22.71;30.01
73242;BME280;65659;49.234;-2.094;2023-05-23T09:29:37;101343.89;;;22.54;29.52
73242;BME280;65659;49.234;-2.094;2023-05-23T09:32:10;101345.54;;;22.97;28.74
73242;BME280;65659;49.234;-2.094;2023-05-23T09:34:25;101348.13;;;23.72;28.28
73242;BME280;65659;49.234;-2.094;2023-05-23T09:36:53;101347.05;;;23.02;28.39
73242;BME280;65659;49.234;-2.094;2023-05-23T09:39:17;101349.11;;;23.13;28.11
73242;BME280;65659;49.234;-2.094;2023-05-23T09:41:49;101353.60;;;23.23;27.90
73242;BME280;65659;49.234;-2.094;2023-05-23T09:44:10;101357.13;;;23.67;27.52
73242;BME280;65659;49.234;-2.094;2023-05-23T09:46:36;101355.41;;;23.45;27.03
73242;BME280;65659;49.234;-2.094;2023-05-23T09:49:08;101357.87;;;23.49;27.18
73242;BME280;65659;49.234;-2.094;2023-05-23T09:59:01;101368.26;;;23.24;27.29
73242;BME280;65659;49.234;-2.094;2023-05-23T10:13:34;101376.26;;;23.26;26.66
73242;BME280;65659;49.234;-2.094;2023-05-23T10:15:47;101376.64;;;23.84;26.38
73242;BME280;65659;49.234;-2.094;2023-05-23T10:18:22;101377.79;;;23.55;25.98
73242;BME280;65659;49.234;-2.094;2023-05-23T10:20:54;101375.23;;;23.90;25.70
73242;BME280;65659;49.234;-2.094;2023-05-23T10:23:22;101375.94;;;24.77;25.55
73242;BME280;65659;49.234;-2.094;2023-05-23T10:25:24;101369.57;;;24.08;25.58
73242;BME280;65659;49.234;-2.094;2023-05-23T10:27:54;101367.99;;;24.26;25.50
73242;BME280;65659;49.234;-2.094;2023-05-23T10:30:15;101370.51;;;24.46;25.23
73242;BME280;65659;49.234;-2.094;2023-05-23T10:32:39;101371.08;;;24.70;25.12
73242;BME280;65659;49.234;-2.094;2023-05-23T10:35:11;101369.66;;;24.62;24.93
73242;BME280;65659;49.234;-2.094;2023-05-23T10:37:36;101373.24;;;24.96;24.83
73242;BME280;65659;49.234;-2.094;2023-05-23T10:40:02;101372.44;;;25.04;24.82
73242;BME280;65659;49.234;-2.094;2023-05-23T10:42:32;101375.67;;;24.93;24.85
73242;BME280;65659;49.234;-2.094;2023-05-23T10:44:48;101373.91;;;24.90;24.50
73242;BME280;65659;49.234;-2.094;2023-05-23T10:47:13;101374.15;;;25.33;24.17
73242;BME280;65659;49.234;-2.094;2023-05-23T10:49:38;101370.59;;;25.02;24.12
73242;BME280;65659;49.234;-2.094;2023-05-23T10:52:04;101369.41;;;25.42;24.20
73242;BME280;65659;49.234;-2.094;2023-05-23T10:54:34;101369.34;;;25.79;24.25
73242;BME280;65659;49.234;-2.094;2023-05-23T10:57:01;101371.74;;;26.96;25.16
73242;BME280;65659;49.234;-2.094;2023-05-23T10:59:19;101375.12;;;26.06;26.16
73242;BME280;65659;49.234;-2.094;2023-05-23T11:01:44;101382.65;;;25.34;26.85
73242;BME280;65659;49.234;-2.094;2023-05-23T11:04:11;101379.24;;;25.12;27.58
73242;BME280;65659;49.234;-2.094;2023-05-23T11:06:38;101382.75;;;25.01;28.04
73242;BME280;65659;49.234;-2.094;2023-05-23T11:09:11;101379.58;;;23.43;27.53
73242;BME280;65659;49.234;-2.094;2023-05-23T11:13:57;101369.71;;;24.79;25.04
73242;BME280;65659;49.234;-2.094;2023-05-23T11:16:27;101366.18;;;25.02;24.40
73242;BME280;65659;49.234;-2.094;2023-05-23T11:21:11;101370.52;;;25.31;24.65
73242;BME280;65659;49.234;-2.094;2023-05-23T11:23:44;101370.96;;;25.31;24.18
73242;BME280;65659;49.234;-2.094;2023-05-23T11:26:06;101372.39;;;25.87;23.57
73242;BME280;65659;49.234;-2.094;2023-05-23T11:28:30;101374.00;;;25.53;23.30
73242;BME280;65659;49.234;-2.094;2023-05-23T11:31:03;101368.11;;;25.69;23.04
73242;BME280;65659;49.234;-2.094;2023-05-23T11:33:45;101363.42;;;26.36;22.78
73242;BME280;65659;49.234;-2.094;2023-05-23T11:35:46;101362.05;;;27.04;22.81
73242;BME280;65659;49.234;-2.094;2023-05-23T11:38:10;101363.60;;;26.99;23.65
73242;BME280;65659;49.234;-2.094;2023-05-23T11:43:06;101362.60;;;25.70;24.14
73242;BME280;65659;49.234;-2.094;2023-05-23T11:45:51;101365.11;;;25.85;24.14
73242;BME280;65659;49.234;-2.094;2023-05-23T11:48:09;101363.34;;;26.40;23.92
73242;BME280;65659;49.234;-2.094;2023-05-23T11:50:21;101358.23;;;26.25;23.56
73242;BME280;65659;49.234;-2.094;2023-05-23T11:52:47;101355.93;;;25.60;23.31
73242;BME280;65659;49.234;-2.094;2023-05-23T11:58:05;101359.24;;;26.04;23.71
73242;BME280;65659;49.234;-2.094;2023-05-23T12:03:05;101356.62;;;25.63;24.99
73242;BME280;65659;49.234;-2.094;2023-05-23T12:07:20;101364.32;;;25.81;25.16
73242;BME280;65659;49.234;-2.094;2023-05-23T12:09:44;101363.88;;;25.34;24.90
73242;BME280;65659;49.234;-2.094;2023-05-23T12:12:08;101360.27;;;25.79;24.81
73242;BME280;65659;49.234;-2.094;2023-05-23T12:14:34;101358.65;;;25.79;24.69
73242;BME280;65659;49.234;-2.094;2023-05-23T12:16:59;101356.47;;;26.17;24.42
73242;BME280;65659;49.234;-2.094;2023-05-23T12:19:25;101354.58;;;26.25;24.41
73242;BME280;65659;49.234;-2.094;2023-05-23T12:21:50;101357.30;;;26.34;24.02
73242;BME280;65659;49.234;-2.094;2023-05-23T12:24:19;101360.69;;;26.49;24.08
73242;BME280;65659;49.234;-2.094;2023-05-23T12:26:48;101363.84;;;26.39;23.87
73242;BME280;65659;49.234;-2.094;2023-05-23T12:29:08;101358.68;;;26.67;23.60
73242;BME280;65659;49.234;-2.094;2023-05-23T12:31:33;101359.48;;;26.69;23.65
73242;BME280;65659;49.234;-2.094;2023-05-23T12:33:59;101359.34;;;26.84;23.63
73242;BME280;65659;49.234;-2.094;2023-05-23T12:36:26;101365.89;;;26.83;23.97
73242;BME280;65659;49.234;-2.094;2023-05-23T12:38:52;101371.40;;;26.72;23.87
73242;BME280;65659;49.234;-2.094;2023-05-23T12:41:17;101376.97;;;26.75;23.60
73242;BME280;65659;49.234;-2.094;2023-05-23T12:43:49;101377.28;;;26.81;23.17
73242;BME280;65659;49.234;-2.094;2023-05-23T12:46:07;101377.18;;;26.83;23.10
73242;BME280;65659;49.234;-2.094;2023-05-23T12:48:33;101380.52;;;27.23;23.44
73242;BME280;65659;49.234;-2.094;2023-05-23T12:50:57;101378.77;;;28.13;23.94
73242;BME280;65659;49.234;-2.094;2023-05-23T12:53:24;101386.15;;;27.29;26.27
73242;BME280;65659;49.234;-2.094;2023-05-23T12:55:48;101381.32;;;26.66;28.19
73242;BME280;65659;49.234;-2.094;2023-05-23T12:58:14;101381.22;;;26.35;29.23
73242;BME280;65659;49.234;-2.094;2023-05-23T13:00:39;101379.76;;;26.07;29.77
73242;BME280;65659;49.234;-2.094;2023-05-23T13:03:04;101374.88;;;25.93;29.57
73242;BME280;65659;49.234;-2.094;2023-05-23T13:05:30;101376.82;;;26.00;28.95